Romoe Maersk — OXLC2 — position and weather

sailwx.info

Track history (hours):
 
Tides and Currents Weather Stations Pressure Air Temp Water Temp Dewpoint Dewpoint Depression Visibility Wind Speed Wind Dir Waves Ship Positions

Romoe Maersk

Last reported at 2015-Aug-29 07:32 UTC. Time now 2015-Sep-03 04:33 UTC.
Position S 18°03' E 049°37'.

Length 171 m; draft 9.9 m.

Type: Ship. MMSI: 220209000.

Date/timePositionNaut miles runAvg speedWind from/ knotsBaromVisibWave heightAir tempDewpointWater temp
2015-Aug-29 07:32S 18°03' E 049°37'1111.0
2015-Aug-29 06:33S 18°06' E 049°26'3 2.6
2015-Aug-29 05:30S 18°09' E 049°25'0 0.0
2015-Aug-29 04:30S 18°09' E 049°25'0 0.0
2015-Aug-29 03:29S 18°09' E 049°25'0 0.0
2015-Aug-29 02:29S 18°09' E 049°25'0 0.0
2015-Aug-29 01:29S 18°09' E 049°25'0 0.0
2015-Aug-29 00:29S 18°09' E 049°25'0 0.0
2015-Aug-28 23:29S 18°09' E 049°25'0 0.0
2015-Aug-28 22:29S 18°09' E 049°25'0 0.0
2015-Aug-28 21:29S 18°09' E 049°25'0 0.0
2015-Aug-28 20:29S 18°09' E 049°25'0 0.0
2015-Aug-28 19:29S 18°09' E 049°25'0 0.0
2015-Aug-28 18:29S 18°09' E 049°25'0 0.0
2015-Aug-28 17:29S 18°09' E 049°25'0 0.0
2015-Aug-28 16:29S 18°09' E 049°25'0 0.0
2015-Aug-28 15:29S 18°09' E 049°25'0 0.0
2015-Aug-28 14:32S 18°09' E 049°25'0 0.0
2015-Aug-28 13:29S 18°09' E 049°25'0 0.0
2015-Aug-28 12:29S 18°09' E 049°25'0 0.0
2015-Aug-28 11:32S 18°09' E 049°25'0 0.0
2015-Aug-28 10:32S 18°09' E 049°25'0 0.0
2015-Aug-28 09:32S 18°09' E 049°25'0 0.0
2015-Aug-28 06:33S 18°09' E 049°25'0 0.0
2015-Aug-28 05:33S 18°09' E 049°25'0 0.0
2015-Aug-28 04:33S 18°09' E 049°25'0 0.0
2015-Aug-28 03:33S 18°09' E 049°25'3 3.1
2015-Aug-28 02:33S 18°06' E 049°27'5 5.0
2015-Aug-28 01:33S 18°06' E 049°32'1 1.0
2015-Aug-28 00:33S 18°06' E 049°31'1 1.3
2015-Aug-27 23:33S 18°07' E 049°32'10 9.8
2015-Aug-27 22:33S 18°14' E 049°38'  
2015-Aug-19 13:27S 34°10' E 018°06'  
Track history (hours):
 
Tides and Currents Weather Stations Pressure Air Temp Water Temp Dewpoint Dewpoint Depression Visibility Wind Speed Wind Dir Waves Ship Positions

Romoe Maersk

Last reported at 2015-Aug-29 07:32 UTC. Time now 2015-Sep-03 04:33 UTC.
Position S 18°03' E 049°37'.

Length 171 m; draft 9.9 m.

Type: Ship. MMSI: 220209000.

Date/timePositionNaut miles runAvg speedWind from/ knotsBaromVisibWave heightAir tempDewpointWater temp
2015-Aug-29 07:32S 18°03' E 049°37'1111.0
2015-Aug-29 06:33S 18°06' E 049°26'3 2.6
2015-Aug-29 05:30S 18°09' E 049°25'0 0.0
2015-Aug-29 04:30S 18°09' E 049°25'0 0.0
2015-Aug-29 03:29S 18°09' E 049°25'0 0.0
2015-Aug-29 02:29S 18°09' E 049°25'0 0.0
2015-Aug-29 01:29S 18°09' E 049°25'0 0.0
2015-Aug-29 00:29S 18°09' E 049°25'0 0.0
2015-Aug-28 23:29S 18°09' E 049°25'0 0.0
2015-Aug-28 22:29S 18°09' E 049°25'0 0.0
2015-Aug-28 21:29S 18°09' E 049°25'0 0.0
2015-Aug-28 20:29S 18°09' E 049°25'0 0.0
2015-Aug-28 19:29S 18°09' E 049°25'0 0.0
2015-Aug-28 18:29S 18°09' E 049°25'0 0.0
2015-Aug-28 17:29S 18°09' E 049°25'0 0.0
2015-Aug-28 16:29S 18°09' E 049°25'0 0.0
2015-Aug-28 15:29S 18°09' E 049°25'0 0.0
2015-Aug-28 14:32S 18°09' E 049°25'0 0.0
2015-Aug-28 13:29S 18°09' E 049°25'0 0.0
2015-Aug-28 12:29S 18°09' E 049°25'0 0.0
2015-Aug-28 11:32S 18°09' E 049°25'0 0.0
2015-Aug-28 10:32S 18°09' E 049°25'0 0.0
2015-Aug-28 09:32S 18°09' E 049°25'0 0.0
2015-Aug-28 06:33S 18°09' E 049°25'0 0.0
2015-Aug-28 05:33S 18°09' E 049°25'0 0.0
2015-Aug-28 04:33S 18°09' E 049°25'0 0.0
2015-Aug-28 03:33S 18°09' E 049°25'3 3.1
2015-Aug-28 02:33S 18°06' E 049°27'5 5.0
2015-Aug-28 01:33S 18°06' E 049°32'1 1.0
2015-Aug-28 00:33S 18°06' E 049°31'1 1.3
2015-Aug-27 23:33S 18°07' E 049°32'10 9.8
2015-Aug-27 22:33S 18°14' E 049°38'  
2015-Aug-19 13:27S 34°10' E 018°06'  

Dump ship's entire track history